sensor_id;sensor_type;location;lat;lon;timestamp;temperature;humidity
17632;DHT22;8934;51.194;17.150;2023-05-07T00:00:20;8.40;99.90
17632;DHT22;8934;51.194;17.150;2023-05-07T00:03:07;8.40;99.90
17632;DHT22;8934;51.194;17.150;2023-05-07T00:05:56;8.40;99.90
17632;DHT22;8934;51.194;17.150;2023-05-07T00:08:43;8.40;99.90
17632;DHT22;8934;51.194;17.150;2023-05-07T00:11:33;8.40;99.90
17632;DHT22;8934;51.194;17.150;2023-05-07T00:14:22;8.40;99.90
17632;DHT22;8934;51.194;17.150;2023-05-07T00:17:09;8.40;99.90
17632;DHT22;8934;51.194;17.150;2023-05-07T00:19:57;8.40;99.90
17632;DHT22;8934;51.194;17.150;2023-05-07T00:22:45;8.40;99.90
17632;DHT22;8934;51.194;17.150;2023-05-07T00:25:32;8.40;99.90
17632;DHT22;8934;51.194;17.150;2023-05-07T00:28:21;8.40;99.90
17632;DHT22;8934;51.194;17.150;2023-05-07T00:31:10;8.40;99.90
17632;DHT22;8934;51.194;17.150;2023-05-07T00:33:57;8.40;99.90
17632;DHT22;8934;51.194;17.150;2023-05-07T00:36:45;8.40;99.90
17632;DHT22;8934;51.194;17.150;2023-05-07T00:39:32;8.40;99.90
17632;DHT22;8934;51.194;17.150;2023-05-07T00:42:20;8.40;99.90
17632;DHT22;8934;51.194;17.150;2023-05-07T00:45:09;8.40;99.90
17632;DHT22;8934;51.194;17.150;2023-05-07T00:47:59;8.40;99.90
17632;DHT22;8934;51.194;17.150;2023-05-07T00:50:48;8.40;99.90
17632;DHT22;8934;51.194;17.150;2023-05-07T00:53:35;8.40;99.90
17632;DHT22;8934;51.194;17.150;2023-05-07T00:56:23;8.40;99.90
17632;DHT22;8934;51.194;17.150;2023-05-07T00:59:12;8.40;99.90
17632;DHT22;8934;51.194;17.150;2023-05-07T01:02:00;8.40;99.90
17632;DHT22;8934;51.194;17.150;2023-05-07T01:04:48;8.40;99.90
17632;DHT22;8934;51.194;17.150;2023-05-07T01:07:37;8.40;99.90
17632;DHT22;8934;51.194;17.150;2023-05-07T01:10:26;8.40;99.90
17632;DHT22;8934;51.194;17.150;2023-05-07T01:13:14;8.40;99.90
17632;DHT22;8934;51.194;17.150;2023-05-07T01:16:03;8.40;99.90
17632;DHT22;8934;51.194;17.150;2023-05-07T01:18:52;8.40;99.90
17632;DHT22;8934;51.194;17.150;2023-05-07T01:21:44;8.30;99.90
17632;DHT22;8934;51.194;17.150;2023-05-07T01:24:37;8.30;99.90
17632;DHT22;8934;51.194;17.150;2023-05-07T01:27:26;8.30;99.90
17632;DHT22;8934;51.194;17.150;2023-05-07T01:30:14;8.30;99.90
17632;DHT22;8934;51.194;17.150;2023-05-07T01:33:06;8.30;99.90
17632;DHT22;8934;51.194;17.150;2023-05-07T01:35:54;8.30;99.90
17632;DHT22;8934;51.194;17.150;2023-05-07T01:38:41;8.30;99.90
17632;DHT22;8934;51.194;17.150;2023-05-07T01:41:31;8.30;99.90
17632;DHT22;8934;51.194;17.150;2023-05-07T01:44:19;8.30;99.90
17632;DHT22;8934;51.194;17.150;2023-05-07T01:47:07;8.30;99.90
17632;DHT22;8934;51.194;17.150;2023-05-07T01:49:56;8.30;99.90
17632;DHT22;8934;51.194;17.150;2023-05-07T01:52:44;8.30;99.90
17632;DHT22;8934;51.194;17.150;2023-05-07T01:55:32;8.30;99.90
17632;DHT22;8934;51.194;17.150;2023-05-07T01:58:21;8.30;99.90
17632;DHT22;8934;51.194;17.150;2023-05-07T02:01:08;8.30;99.90
17632;DHT22;8934;51.194;17.150;2023-05-07T02:03:56;8.30;99.90
17632;DHT22;8934;51.194;17.150;2023-05-07T02:06:47;8.30;99.90
17632;DHT22;8934;51.194;17.150;2023-05-07T02:09:35;8.30;99.90
17632;DHT22;8934;51.194;17.150;2023-05-07T02:12:23;8.30;99.90
17632;DHT22;8934;51.194;17.150;2023-05-07T02:15:12;8.30;99.90
17632;DHT22;8934;51.194;17.150;2023-05-07T02:18:03;8.30;99.90
17632;DHT22;8934;51.194;17.150;2023-05-07T02:20:51;8.30;99.90
17632;DHT22;8934;51.194;17.150;2023-05-07T02:23:38;8.20;99.90
17632;DHT22;8934;51.194;17.150;2023-05-07T02:26:26;8.20;99.90
17632;DHT22;8934;51.194;17.150;2023-05-07T02:29:13;8.20;99.90
17632;DHT22;8934;51.194;17.150;2023-05-07T02:32:04;8.20;99.90
17632;DHT22;8934;51.194;17.150;2023-05-07T02:34:51;8.20;99.90
17632;DHT22;8934;51.194;17.150;2023-05-07T02:37:39;8.20;99.90
17632;DHT22;8934;51.194;17.150;2023-05-07T02:40:27;8.20;99.90
17632;DHT22;8934;51.194;17.150;2023-05-07T02:43:15;8.20;99.90
17632;DHT22;8934;51.194;17.150;2023-05-07T02:46:07;8.20;99.90
17632;DHT22;8934;51.194;17.150;2023-05-07T02:49:01;8.20;99.90
17632;DHT22;8934;51.194;17.150;2023-05-07T02:51:48;8.20;99.90
17632;DHT22;8934;51.194;17.150;2023-05-07T02:54:40;8.10;99.90
17632;DHT22;8934;51.194;17.150;2023-05-07T02:57:28;8.10;99.90
17632;DHT22;8934;51.194;17.150;2023-05-07T03:00:17;8.10;99.90
17632;DHT22;8934;51.194;17.150;2023-05-07T03:03:17;8.10;99.90
17632;DHT22;8934;51.194;17.150;2023-05-07T03:06:06;8.10;99.90
17632;DHT22;8934;51.194;17.150;2023-05-07T03:08:54;8.10;99.90
17632;DHT22;8934;51.194;17.150;2023-05-07T03:11:42;8.10;99.90
17632;DHT22;8934;51.194;17.150;2023-05-07T03:14:30;8.10;99.90
17632;DHT22;8934;51.194;17.150;2023-05-07T03:17:17;8.10;99.90
17632;DHT22;8934;51.194;17.150;2023-05-07T03:20:06;8.10;99.90
17632;DHT22;8934;51.194;17.150;2023-05-07T03:22:58;8.10;99.90
17632;DHT22;8934;51.194;17.150;2023-05-07T03:25:45;8.10;99.90
17632;DHT22;8934;51.194;17.150;2023-05-07T03:28:33;8.10;99.90
17632;DHT22;8934;51.194;17.150;2023-05-07T03:31:23;8.00;99.90
17632;DHT22;8934;51.194;17.150;2023-05-07T03:34:12;8.00;99.90
17632;DHT22;8934;51.194;17.150;2023-05-07T03:36:59;8.00;99.90
17632;DHT22;8934;51.194;17.150;2023-05-07T03:39:48;8.00;99.90
17632;DHT22;8934;51.194;17.150;2023-05-07T03:42:37;8.00;99.90
17632;DHT22;8934;51.194;17.150;2023-05-07T03:45:25;8.00;99.90
17632;DHT22;8934;51.194;17.150;2023-05-07T03:48:25;8.00;99.90
17632;DHT22;8934;51.194;17.150;2023-05-07T03:51:15;8.00;99.90
17632;DHT22;8934;51.194;17.150;2023-05-07T03:54:03;8.00;99.90
17632;DHT22;8934;51.194;17.150;2023-05-07T03:56:53;8.00;99.90
17632;DHT22;8934;51.194;17.150;2023-05-07T03:59:41;8.00;99.90
17632;DHT22;8934;51.194;17.150;2023-05-07T04:02:28;8.00;99.90
17632;DHT22;8934;51.194;17.150;2023-05-07T04:05:17;8.00;99.90
17632;DHT22;8934;51.194;17.150;2023-05-07T04:08:07;8.10;99.90
17632;DHT22;8934;51.194;17.150;2023-05-07T04:11:00;8.10;99.90
17632;DHT22;8934;51.194;17.150;2023-05-07T04:13:52;8.10;99.90
17632;DHT22;8934;51.194;17.150;2023-05-07T04:16:42;8.10;99.90
17632;DHT22;8934;51.194;17.150;2023-05-07T04:19:29;8.20;99.90
17632;DHT22;8934;51.194;17.150;2023-05-07T04:22:16;8.20;99.90
17632;DHT22;8934;51.194;17.150;2023-05-07T04:25:05;8.20;99.90
17632;DHT22;8934;51.194;17.150;2023-05-07T04:27:53;8.30;99.90
17632;DHT22;8934;51.194;17.150;2023-05-07T04:30:47;8.20;99.90
17632;DHT22;8934;51.194;17.150;2023-05-07T04:33:34;8.20;99.90
17632;DHT22;8934;51.194;17.150;2023-05-07T04:36:23;8.20;99.90
17632;DHT22;8934;51.194;17.150;2023-05-07T04:39:20;8.20;99.90
17632;DHT22;8934;51.194;17.150;2023-05-07T04:42:08;8.20;99.90
17632;DHT22;8934;51.194;17.150;2023-05-07T04:44:56;8.20;99.90
17632;DHT22;8934;51.194;17.150;2023-05-07T04:47:45;8.30;99.90
17632;DHT22;8934;51.194;17.150;2023-05-07T04:50:33;8.40;99.90
17632;DHT22;8934;51.194;17.150;2023-05-07T04:53:21;8.40;99.90
17632;DHT22;8934;51.194;17.150;2023-05-07T04:56:10;8.50;99.90
17632;DHT22;8934;51.194;17.150;2023-05-07T04:59:00;8.60;99.90
17632;DHT22;8934;51.194;17.150;2023-05-07T05:01:49;8.70;99.90
17632;DHT22;8934;51.194;17.150;2023-05-07T05:04:38;8.70;99.90
17632;DHT22;8934;51.194;17.150;2023-05-07T05:07:26;8.70;99.90
17632;DHT22;8934;51.194;17.150;2023-05-07T05:10:14;8.70;99.90
17632;DHT22;8934;51.194;17.150;2023-05-07T05:13:02;8.70;99.90
17632;DHT22;8934;51.194;17.150;2023-05-07T05:15:50;8.60;99.90
17632;DHT22;8934;51.194;17.150;2023-05-07T05:18:38;8.50;99.90
17632;DHT22;8934;51.194;17.150;2023-05-07T05:21:29;8.50;99.90
17632;DHT22;8934;51.194;17.150;2023-05-07T05:24:22;8.50;99.90
17632;DHT22;8934;51.194;17.150;2023-05-07T05:27:10;8.50;99.90
17632;DHT22;8934;51.194;17.150;2023-05-07T05:29:58;8.50;99.90
17632;DHT22;8934;51.194;17.150;2023-05-07T05:32:47;8.50;99.90
17632;DHT22;8934;51.194;17.150;2023-05-07T05:35:34;8.60;99.90
17632;DHT22;8934;51.194;17.150;2023-05-07T05:38:26;8.60;99.90
17632;DHT22;8934;51.194;17.150;2023-05-07T05:41:13;8.70;99.90
17632;DHT22;8934;51.194;17.150;2023-05-07T05:44:01;8.80;99.90
17632;DHT22;8934;51.194;17.150;2023-05-07T05:46:49;8.80;99.90
17632;DHT22;8934;51.194;17.150;2023-05-07T05:49:37;8.90;99.90
17632;DHT22;8934;51.194;17.150;2023-05-07T05:52:26;8.90;99.90
17632;DHT22;8934;51.194;17.150;2023-05-07T05:55:16;8.90;99.90
17632;DHT22;8934;51.194;17.150;2023-05-07T05:58:04;9.00;99.90
17632;DHT22;8934;51.194;17.150;2023-05-07T06:00:56;9.10;99.90
17632;DHT22;8934;51.194;17.150;2023-05-07T06:03:46;9.10;99.90
17632;DHT22;8934;51.194;17.150;2023-05-07T06:06:34;9.20;99.90
17632;DHT22;8934;51.194;17.150;2023-05-07T06:09:22;9.20;99.90
17632;DHT22;8934;51.194;17.150;2023-05-07T06:12:11;9.30;99.90
17632;DHT22;8934;51.194;17.150;2023-05-07T06:14:59;9.30;99.90
17632;DHT22;8934;51.194;17.150;2023-05-07T06:17:47;9.30;99.90
17632;DHT22;8934;51.194;17.150;2023-05-07T06:20:35;9.30;99.90
17632;DHT22;8934;51.194;17.150;2023-05-07T06:23:27;9.30;99.90
17632;DHT22;8934;51.194;17.150;2023-05-07T06:26:15;9.30;99.90
17632;DHT22;8934;51.194;17.150;2023-05-07T06:29:06;9.30;99.90
17632;DHT22;8934;51.194;17.150;2023-05-07T06:31:54;9.40;99.90
17632;DHT22;8934;51.194;17.150;2023-05-07T06:34:42;9.40;99.90
17632;DHT22;8934;51.194;17.150;2023-05-07T06:37:31;9.40;99.90
17632;DHT22;8934;51.194;17.150;2023-05-07T06:40:22;9.30;99.90
17632;DHT22;8934;51.194;17.150;2023-05-07T06:43:09;9.20;99.90
17632;DHT22;8934;51.194;17.150;2023-05-07T06:46:21;9.20;99.90
17632;DHT22;8934;51.194;17.150;2023-05-07T06:49:09;9.20;99.90
17632;DHT22;8934;51.194;17.150;2023-05-07T06:51:56;9.30;99.90
17632;DHT22;8934;51.194;17.150;2023-05-07T06:54:44;9.30;99.90
17632;DHT22;8934;51.194;17.150;2023-05-07T06:57:34;9.40;99.90
17632;DHT22;8934;51.194;17.150;2023-05-07T07:00:22;9.40;99.90
17632;DHT22;8934;51.194;17.150;2023-05-07T07:03:14;9.50;99.90
17632;DHT22;8934;51.194;17.150;2023-05-07T07:06:02;9.50;99.90
17632;DHT22;8934;51.194;17.150;2023-05-07T07:08:49;9.50;99.90
17632;DHT22;8934;51.194;17.150;2023-05-07T07:11:37;9.50;99.90
17632;DHT22;8934;51.194;17.150;2023-05-07T07:14:25;9.60;99.90
17632;DHT22;8934;51.194;17.150;2023-05-07T07:17:13;9.60;99.90
17632;DHT22;8934;51.194;17.150;2023-05-07T07:20:02;9.70;99.90
17632;DHT22;8934;51.194;17.150;2023-05-07T07:22:50;9.80;99.90
17632;DHT22;8934;51.194;17.150;2023-05-07T07:25:38;9.90;99.90
17632;DHT22;8934;51.194;17.150;2023-05-07T07:28:26;9.90;99.90
17632;DHT22;8934;51.194;17.150;2023-05-07T07:31:14;9.90;99.90
17632;DHT22;8934;51.194;17.150;2023-05-07T07:34:02;9.90;99.90
17632;DHT22;8934;51.194;17.150;2023-05-07T07:36:52;9.90;99.90
17632;DHT22;8934;51.194;17.150;2023-05-07T07:39:39;9.90;99.90
17632;DHT22;8934;51.194;17.150;2023-05-07T07:42:27;9.90;99.90
17632;DHT22;8934;51.194;17.150;2023-05-07T07:45:16;9.80;99.90
17632;DHT22;8934;51.194;17.150;2023-05-07T07:48:06;9.80;99.90
17632;DHT22;8934;51.194;17.150;2023-05-07T07:50:56;9.80;99.90
17632;DHT22;8934;51.194;17.150;2023-05-07T07:53:45;9.70;99.90
17632;DHT22;8934;51.194;17.150;2023-05-07T07:56:33;9.70;99.90
17632;DHT22;8934;51.194;17.150;2023-05-07T07:59:22;9.60;99.90
17632;DHT22;8934;51.194;17.150;2023-05-07T08:02:10;9.60;99.90
17632;DHT22;8934;51.194;17.150;2023-05-07T08:04:58;9.60;99.90
17632;DHT22;8934;51.194;17.150;2023-05-07T08:07:45;9.60;99.90
17632;DHT22;8934;51.194;17.150;2023-05-07T08:10:42;9.70;99.90
17632;DHT22;8934;51.194;17.150;2023-05-07T08:13:38;9.70;99.90
17632;DHT22;8934;51.194;17.150;2023-05-07T08:16:26;9.80;99.90
17632;DHT22;8934;51.194;17.150;2023-05-07T08:19:17;9.70;99.90
17632;DHT22;8934;51.194;17.150;2023-05-07T08:22:05;9.70;99.90
17632;DHT22;8934;51.194;17.150;2023-05-07T08:24:53;9.60;99.90
17632;DHT22;8934;51.194;17.150;2023-05-07T08:27:42;9.60;99.90
17632;DHT22;8934;51.194;17.150;2023-05-07T08:30:31;9.50;99.90
17632;DHT22;8934;51.194;17.150;2023-05-07T08:33:19;9.50;99.90
17632;DHT22;8934;51.194;17.150;2023-05-07T08:36:07;9.50;99.90
17632;DHT22;8934;51.194;17.150;2023-05-07T08:38:55;9.50;99.90
17632;DHT22;8934;51.194;17.150;2023-05-07T08:41:44;9.60;99.90
17632;DHT22;8934;51.194;17.150;2023-05-07T08:44:34;9.70;99.90
17632;DHT22;8934;51.194;17.150;2023-05-07T08:47:23;9.90;99.90
17632;DHT22;8934;51.194;17.150;2023-05-07T08:50:14;10.00;99.90
17632;DHT22;8934;51.194;17.150;2023-05-07T08:53:03;10.10;99.90
17632;DHT22;8934;51.194;17.150;2023-05-07T08:55:51;10.10;99.90
17632;DHT22;8934;51.194;17.150;2023-05-07T08:58:40;10.10;99.90
17632;DHT22;8934;51.194;17.150;2023-05-07T09:01:29;10.00;99.90
17632;DHT22;8934;51.194;17.150;2023-05-07T09:04:17;10.10;99.90
17632;DHT22;8934;51.194;17.150;2023-05-07T09:07:05;10.10;99.90
17632;DHT22;8934;51.194;17.150;2023-05-07T09:09:57;10.10;99.90
17632;DHT22;8934;51.194;17.150;2023-05-07T09:12:47;10.10;99.90
17632;DHT22;8934;51.194;17.150;2023-05-07T09:15:34;10.20;99.90
17632;DHT22;8934;51.194;17.150;2023-05-07T09:18:25;10.20;99.90
17632;DHT22;8934;51.194;17.150;2023-05-07T09:21:15;10.40;99.90
17632;DHT22;8934;51.194;17.150;2023-05-07T09:24:05;10.70;99.90
17632;DHT22;8934;51.194;17.150;2023-05-07T09:26:58;11.10;99.90
17632;DHT22;8934;51.194;17.150;2023-05-07T09:29:46;11.50;99.90
17632;DHT22;8934;51.194;17.150;2023-05-07T09:32:36;11.90;99.90
17632;DHT22;8934;51.194;17.150;2023-05-07T09:35:28;12.00;99.90
17632;DHT22;8934;51.194;17.150;2023-05-07T09:38:21;11.90;99.90
17632;DHT22;8934;51.194;17.150;2023-05-07T09:41:14;11.70;99.90
17632;DHT22;8934;51.194;17.150;2023-05-07T09:44:15;11.50;99.90
17632;DHT22;8934;51.194;17.150;2023-05-07T09:47:07;11.40;99.90
17632;DHT22;8934;51.194;17.150;2023-05-07T09:50:02;11.40;99.90
17632;DHT22;8934;51.194;17.150;2023-05-07T09:52:54;11.60;99.90
17632;DHT22;8934;51.194;17.150;2023-05-07T09:55:43;11.80;99.90
17632;DHT22;8934;51.194;17.150;2023-05-07T09:58:33;11.80;99.90
17632;DHT22;8934;51.194;17.150;2023-05-07T10:01:25;11.90;99.90
17632;DHT22;8934;51.194;17.150;2023-05-07T10:04:13;11.80;99.90
17632;DHT22;8934;51.194;17.150;2023-05-07T10:07:04;11.80;99.90
17632;DHT22;8934;51.194;17.150;2023-05-07T10:09:55;11.80;99.90
17632;DHT22;8934;51.194;17.150;2023-05-07T10:12:54;12.00;99.90
17632;DHT22;8934;51.194;17.150;2023-05-07T10:15:50;12.40;99.90
17632;DHT22;8934;51.194;17.150;2023-05-07T10:18:40;12.50;99.90
17632;DHT22;8934;51.194;17.150;2023-05-07T10:21:36;12.70;99.90
17632;DHT22;8934;51.194;17.150;2023-05-07T10:24:26;12.70;99.90
17632;DHT22;8934;51.194;17.150;2023-05-07T10:27:17;12.80;99.90
17632;DHT22;8934;51.194;17.150;2023-05-07T10:30:21;13.00;99.90
17632;DHT22;8934;51.194;17.150;2023-05-07T10:33:17;13.00;99.90
17632;DHT22;8934;51.194;17.150;2023-05-07T10:36:07;13.10;99.90
17632;DHT22;8934;51.194;17.150;2023-05-07T10:38:56;13.10;99.90
17632;DHT22;8934;51.194;17.150;2023-05-07T10:41:44;13.20;99.90
17632;DHT22;8934;51.194;17.150;2023-05-07T10:44:33;13.30;99.90
17632;DHT22;8934;51.194;17.150;2023-05-07T10:47:25;13.40;99.90
17632;DHT22;8934;51.194;17.150;2023-05-07T10:50:21;13.50;99.90
17632;DHT22;8934;51.194;17.150;2023-05-07T10:53:24;13.40;99.90
17632;DHT22;8934;51.194;17.150;2023-05-07T10:56:37;13.50;99.90
17632;DHT22;8934;51.194;17.150;2023-05-07T10:59:35;13.50;99.90
17632;DHT22;8934;51.194;17.150;2023-05-07T11:03:05;13.60;99.90
17632;DHT22;8934;51.194;17.150;2023-05-07T11:06:10;13.40;99.90
17632;DHT22;8934;51.194;17.150;2023-05-07T11:09:18;13.20;99.90
17632;DHT22;8934;51.194;17.150;2023-05-07T11:12:14;13.00;99.90
17632;DHT22;8934;51.194;17.150;2023-05-07T11:15:11;13.00;99.90
17632;DHT22;8934;51.194;17.150;2023-05-07T11:17:59;13.10;99.90
17632;DHT22;8934;51.194;17.150;2023-05-07T11:20:55;13.20;99.90
17632;DHT22;8934;51.194;17.150;2023-05-07T11:23:58;13.40;99.90
17632;DHT22;8934;51.194;17.150;2023-05-07T11:27:00;13.50;99.90
17632;DHT22;8934;51.194;17.150;2023-05-07T11:29:50;13.50;99.90
17632;DHT22;8934;51.194;17.150;2023-05-07T11:32:39;13.50;99.90
17632;DHT22;8934;51.194;17.150;2023-05-07T11:35:29;13.50;99.90
17632;DHT22;8934;51.194;17.150;2023-05-07T11:38:18;13.50;99.90
17632;DHT22;8934;51.194;17.150;2023-05-07T11:41:08;13.60;99.90
17632;DHT22;8934;51.194;17.150;2023-05-07T11:43:57;13.80;99.90
17632;DHT22;8934;51.194;17.150;2023-05-07T11:46:45;13.90;99.90
17632;DHT22;8934;51.194;17.150;2023-05-07T11:49:34;14.00;99.90
17632;DHT22;8934;51.194;17.150;2023-05-07T11:52:23;14.10;99.90
17632;DHT22;8934;51.194;17.150;2023-05-07T11:55:11;14.00;99.90
17632;DHT22;8934;51.194;17.150;2023-05-07T11:57:59;13.80;99.90
17632;DHT22;8934;51.194;17.150;2023-05-07T12:00:48;13.60;99.90
17632;DHT22;8934;51.194;17.150;2023-05-07T12:03:36;13.50;99.90
17632;DHT22;8934;51.194;17.150;2023-05-07T12:06:26;13.60;99.90
17632;DHT22;8934;51.194;17.150;2023-05-07T12:09:14;13.70;99.90
17632;DHT22;8934;51.194;17.150;2023-05-07T12:12:03;13.80;99.90
17632;DHT22;8934;51.194;17.150;2023-05-07T12:14:52;13.90;99.90
17632;DHT22;8934;51.194;17.150;2023-05-07T12:17:40;13.80;99.90
17632;DHT22;8934;51.194;17.150;2023-05-07T12:20:28;13.70;99.90
17632;DHT22;8934;51.194;17.150;2023-05-07T12:23:17;13.60;99.90
17632;DHT22;8934;51.194;17.150;2023-05-07T12:26:05;13.50;99.90
17632;DHT22;8934;51.194;17.150;2023-05-07T12:28:54;13.50;99.90
17632;DHT22;8934;51.194;17.150;2023-05-07T12:31:42;13.60;99.90
17632;DHT22;8934;51.194;17.150;2023-05-07T12:34:31;13.70;99.90
17632;DHT22;8934;51.194;17.150;2023-05-07T12:37:23;13.80;99.90
17632;DHT22;8934;51.194;17.150;2023-05-07T12:40:13;13.90;99.90
17632;DHT22;8934;51.194;17.150;2023-05-07T12:43:01;14.10;99.90
17632;DHT22;8934;51.194;17.150;2023-05-07T12:45:50;14.00;99.90
17632;DHT22;8934;51.194;17.150;2023-05-07T12:48:41;13.90;99.90
17632;DHT22;8934;51.194;17.150;2023-05-07T12:51:31;13.80;99.90
17632;DHT22;8934;51.194;17.150;2023-05-07T12:54:28;13.50;99.90
17632;DHT22;8934;51.194;17.150;2023-05-07T12:57:19;13.30;99.90
17632;DHT22;8934;51.194;17.150;2023-05-07T13:00:09;13.20;99.90
17632;DHT22;8934;51.194;17.150;2023-05-07T13:02:58;13.30;99.90
17632;DHT22;8934;51.194;17.150;2023-05-07T13:05:46;13.20;99.90
17632;DHT22;8934;51.194;17.150;2023-05-07T13:08:35;13.10;99.90
17632;DHT22;8934;51.194;17.150;2023-05-07T13:11:23;12.90;99.90
17632;DHT22;8934;51.194;17.150;2023-05-07T13:14:12;12.70;99.90
17632;DHT22;8934;51.194;17.150;2023-05-07T13:17:00;12.50;99.90
17632;DHT22;8934;51.194;17.150;2023-05-07T13:19:47;12.40;99.90
17632;DHT22;8934;51.194;17.150;2023-05-07T13:22:35;12.50;99.90
17632;DHT22;8934;51.194;17.150;2023-05-07T13:25:23;12.60;99.90
17632;DHT22;8934;51.194;17.150;2023-05-07T13:28:11;12.90;99.90
17632;DHT22;8934;51.194;17.150;2023-05-07T13:31:00;12.90;99.90
17632;DHT22;8934;51.194;17.150;2023-05-07T13:33:49;12.90;99.90
17632;DHT22;8934;51.194;17.150;2023-05-07T13:36:37;12.70;99.90
17632;DHT22;8934;51.194;17.150;2023-05-07T13:39:26;12.60;99.90
17632;DHT22;8934;51.194;17.150;2023-05-07T13:42:14;12.60;99.90
17632;DHT22;8934;51.194;17.150;2023-05-07T13:45:02;12.60;99.90
17632;DHT22;8934;51.194;17.150;2023-05-07T13:47:52;12.50;99.90
17632;DHT22;8934;51.194;17.150;2023-05-07T13:50:40;12.40;99.90
17632;DHT22;8934;51.194;17.150;2023-05-07T13:53:27;12.40;99.90
17632;DHT22;8934;51.194;17.150;2023-05-07T13:56:15;12.30;99.90
17632;DHT22;8934;51.194;17.150;2023-05-07T13:59:03;12.20;99.90
17632;DHT22;8934;51.194;17.150;2023-05-07T14:01:51;12.00;99.90
17632;DHT22;8934;51.194;17.150;2023-05-07T14:04:40;11.90;99.90
17632;DHT22;8934;51.194;17.150;2023-05-07T14:07:28;11.80;99.90
17632;DHT22;8934;51.194;17.150;2023-05-07T14:10:15;11.80;99.90
17632;DHT22;8934;51.194;17.150;2023-05-07T14:13:03;11.80;99.90
17632;DHT22;8934;51.194;17.150;2023-05-07T14:15:50;11.90;99.90
17632;DHT22;8934;51.194;17.150;2023-05-07T14:18:38;11.90;99.90
17632;DHT22;8934;51.194;17.150;2023-05-07T14:21:27;11.90;99.90
17632;DHT22;8934;51.194;17.150;2023-05-07T14:24:15;11.90;99.90
17632;DHT22;8934;51.194;17.150;2023-05-07T14:27:22;11.90;99.90
17632;DHT22;8934;51.194;17.150;2023-05-07T14:30:10;11.90;99.90
17632;DHT22;8934;51.194;17.150;2023-05-07T14:32:58;12.00;99.90
17632;DHT22;8934;51.194;17.150;2023-05-07T14:35:45;11.90;99.90
17632;DHT22;8934;51.194;17.150;2023-05-07T14:38:36;11.90;99.90
17632;DHT22;8934;51.194;17.150;2023-05-07T14:41:24;11.90;99.90
17632;DHT22;8934;51.194;17.150;2023-05-07T14:44:12;11.90;99.90
17632;DHT22;8934;51.194;17.150;2023-05-07T14:47:00;11.90;99.90
17632;DHT22;8934;51.194;17.150;2023-05-07T14:49:48;11.90;99.90
17632;DHT22;8934;51.194;17.150;2023-05-07T14:52:35;11.90;99.90
17632;DHT22;8934;51.194;17.150;2023-05-07T14:55:24;12.00;99.90
17632;DHT22;8934;51.194;17.150;2023-05-07T14:58:12;12.00;99.90
17632;DHT22;8934;51.194;17.150;2023-05-07T15:00:59;12.10;99.90
17632;DHT22;8934;51.194;17.150;2023-05-07T15:03:47;12.20;99.90
17632;DHT22;8934;51.194;17.150;2023-05-07T15:06:36;12.20;99.90
17632;DHT22;8934;51.194;17.150;2023-05-07T15:09:23;12.20;99.90
17632;DHT22;8934;51.194;17.150;2023-05-07T15:12:13;12.20;99.90
17632;DHT22;8934;51.194;17.150;2023-05-07T15:15:00;12.20;99.90
17632;DHT22;8934;51.194;17.150;2023-05-07T15:17:48;12.10;99.90
17632;DHT22;8934;51.194;17.150;2023-05-07T15:20:36;12.10;99.90
17632;DHT22;8934;51.194;17.150;2023-05-07T15:23:23;12.00;99.90
17632;DHT22;8934;51.194;17.150;2023-05-07T15:26:12;11.90;99.90
17632;DHT22;8934;51.194;17.150;2023-05-07T15:29:02;11.80;99.90
17632;DHT22;8934;51.194;17.150;2023-05-07T15:31:54;11.70;99.90
17632;DHT22;8934;51.194;17.150;2023-05-07T15:34:42;11.60;99.90
17632;DHT22;8934;51.194;17.150;2023-05-07T15:37:31;11.50;99.90
17632;DHT22;8934;51.194;17.150;2023-05-07T15:40:18;11.50;99.90
17632;DHT22;8934;51.194;17.150;2023-05-07T15:43:06;11.40;99.90
17632;DHT22;8934;51.194;17.150;2023-05-07T15:45:55;11.40;99.90
17632;DHT22;8934;51.194;17.150;2023-05-07T15:48:42;11.40;99.90
17632;DHT22;8934;51.194;17.150;2023-05-07T15:51:30;11.30;99.90
17632;DHT22;8934;51.194;17.150;2023-05-07T15:54:18;11.30;99.90
17632;DHT22;8934;51.194;17.150;2023-05-07T15:57:06;11.30;99.90
17632;DHT22;8934;51.194;17.150;2023-05-07T15:59:54;11.30;99.90
17632;DHT22;8934;51.194;17.150;2023-05-07T16:02:43;11.40;99.90
17632;DHT22;8934;51.194;17.150;2023-05-07T16:05:30;11.40;99.90
17632;DHT22;8934;51.194;17.150;2023-05-07T16:08:18;11.50;99.90
17632;DHT22;8934;51.194;17.150;2023-05-07T16:11:06;11.50;99.90
17632;DHT22;8934;51.194;17.150;2023-05-07T16:13:54;11.40;99.90
17632;DHT22;8934;51.194;17.150;2023-05-07T16:16:41;11.40;99.90
17632;DHT22;8934;51.194;17.150;2023-05-07T16:19:30;11.30;99.90
17632;DHT22;8934;51.194;17.150;2023-05-07T16:22:18;11.30;99.90
17632;DHT22;8934;51.194;17.150;2023-05-07T16:25:06;11.30;99.90
17632;DHT22;8934;51.194;17.150;2023-05-07T16:27:54;11.20;99.90
17632;DHT22;8934;51.194;17.150;2023-05-07T16:30:42;11.20;99.90
17632;DHT22;8934;51.194;17.150;2023-05-07T16:33:30;11.10;99.90
17632;DHT22;8934;51.194;17.150;2023-05-07T16:36:19;11.00;99.90
17632;DHT22;8934;51.194;17.150;2023-05-07T16:39:06;11.00;99.90
17632;DHT22;8934;51.194;17.150;2023-05-07T16:41:54;10.90;99.90
17632;DHT22;8934;51.194;17.150;2023-05-07T16:44:42;10.90;99.90
17632;DHT22;8934;51.194;17.150;2023-05-07T16:47:30;10.80;99.90
17632;DHT22;8934;51.194;17.150;2023-05-07T16:50:17;10.70;99.90
17632;DHT22;8934;51.194;17.150;2023-05-07T16:53:07;10.60;99.90
17632;DHT22;8934;51.194;17.150;2023-05-07T16:55:54;10.50;99.90
17632;DHT22;8934;51.194;17.150;2023-05-07T16:58:42;10.50;99.90
17632;DHT22;8934;51.194;17.150;2023-05-07T17:01:30;10.50;99.90
17632;DHT22;8934;51.194;17.150;2023-05-07T17:04:18;10.50;99.90
17632;DHT22;8934;51.194;17.150;2023-05-07T17:07:05;10.50;99.90
17632;DHT22;8934;51.194;17.150;2023-05-07T17:09:54;10.50;99.90
17632;DHT22;8934;51.194;17.150;2023-05-07T17:12:42;10.50;99.90
17632;DHT22;8934;51.194;17.150;2023-05-07T17:15:30;10.50;99.90
17632;DHT22;8934;51.194;17.150;2023-05-07T17:18:18;10.50;99.90
17632;DHT22;8934;51.194;17.150;2023-05-07T17:21:05;10.40;99.90
17632;DHT22;8934;51.194;17.150;2023-05-07T17:23:53;10.40;99.90
17632;DHT22;8934;51.194;17.150;2023-05-07T17:26:42;10.40;99.90
17632;DHT22;8934;51.194;17.150;2023-05-07T17:29:29;10.30;99.90
17632;DHT22;8934;51.194;17.150;2023-05-07T17:32:17;10.20;99.90
17632;DHT22;8934;51.194;17.150;2023-05-07T17:35:05;10.20;99.90
17632;DHT22;8934;51.194;17.150;2023-05-07T17:37:53;10.10;99.90
17632;DHT22;8934;51.194;17.150;2023-05-07T17:40:40;10.00;99.90
17632;DHT22;8934;51.194;17.150;2023-05-07T17:43:29;10.00;99.90
17632;DHT22;8934;51.194;17.150;2023-05-07T17:46:17;9.90;99.90
17632;DHT22;8934;51.194;17.150;2023-05-07T17:49:05;9.90;99.90
17632;DHT22;8934;51.194;17.150;2023-05-07T17:51:52;9.90;99.90
17632;DHT22;8934;51.194;17.150;2023-05-07T17:54:44;9.80;99.90
17632;DHT22;8934;51.194;17.150;2023-05-07T17:57:32;9.80;99.90